Time;durP1;ratioP1;P1;durP2;ratioP2;P2;SDS_P1;SDS_P2;PMS_P1;PMS_P2;Temp;Humidity;BMP_temperature;BMP_pressure;BME280_temperature;BME280_humidity;BME280_pressure;Samples;Min_cycle;Max_cycle;Signal;HPM_P1;HPM_P2
2022/02/16 00:02:08;;;;;;;29.63;16.37;;;7.20;99.90;;;;;;5060755;28;20418;-64
2022/02/16 00:04:35;;;;;;;33.43;17.83;;;7.10;99.90;;;;;;5073020;28;20212;-64
2022/02/16 00:07:02;;;;;;;26.40;17.10;;;7.20;99.90;;;;;;5070740;28;20214;-63
2022/02/16 00:09:28;;;;;;;29.67;18.10;;;7.20;99.90;;;;;;5073320;28;20211;-64
2022/02/16 00:11:57;;;;;;;31.20;17.27;;;7.20;99.90;;;;;;5072633;28;20213;-64
2022/02/16 00:14:24;;;;;;;29.03;17.53;;;7.10;99.90;;;;;;5066879;28;20240;-63
2022/02/16 00:16:51;;;;;;;26.63;17.80;;;7.10;99.90;;;;;;5070745;28;20201;-64
2022/02/16 00:19:18;;;;;;;29.33;17.97;;;7.10;99.90;;;;;;5070754;28;20237;-63
2022/02/16 00:21:44;;;;;;;25.80;16.03;;;7.10;99.90;;;;;;5071166;28;20225;-64
2022/02/16 00:24:11;;;;;;;28.33;16.93;;;7.10;99.90;;;;;;5069290;28;20205;-64
2022/02/16 00:26:38;;;;;;;27.30;17.00;;;7.00;99.90;;;;;;5078457;28;20296;-63
2022/02/16 00:29:06;;;;;;;29.03;17.17;;;7.10;99.90;;;;;;5083737;28;20211;-63
2022/02/16 00:31:33;;;;;;;25.53;16.33;;;7.00;99.90;;;;;;5078190;28;20709;-64
2022/02/16 00:34:00;;;;;;;28.37;16.67;;;7.00;99.90;;;;;;5071464;28;20209;-64
2022/02/16 00:36:27;;;;;;;26.33;15.97;;;7.00;99.90;;;;;;5067770;28;20293;-63
2022/02/16 00:38:54;;;;;;;25.00;16.07;;;7.00;99.90;;;;;;5071207;28;20319;-64
2022/02/16 00:41:21;;;;;;;27.00;17.13;;;6.90;99.90;;;;;;5083388;28;20595;-64
2022/02/16 00:43:47;;;;;;;27.57;17.50;;;6.90;99.90;;;;;;5078284;28;20664;-64
2022/02/16 00:46:16;;;;;;;26.67;16.33;;;6.90;99.90;;;;;;5080299;28;20292;-64
2022/02/16 00:48:43;;;;;;;28.57;16.03;;;6.90;99.90;;;;;;5065009;28;20213;-63
2022/02/16 00:51:10;;;;;;;28.67;17.67;;;6.90;99.90;;;;;;5078483;28;20581;-64
2022/02/16 00:53:37;;;;;;;27.30;16.50;;;6.90;99.90;;;;;;5077979;28;20295;-65
2022/02/16 00:56:04;;;;;;;30.77;17.03;;;6.90;99.90;;;;;;5084599;28;20292;-64
2022/02/16 00:58:31;;;;;;;28.83;16.83;;;6.90;99.90;;;;;;5069975;28;20201;-64
2022/02/16 01:00:58;;;;;;;25.83;16.47;;;6.90;99.90;;;;;;5076479;28;20310;-64
2022/02/16 01:03:26;;;;;;;26.47;16.30;;;6.80;99.90;;;;;;5063970;28;20205;-64
2022/02/16 01:05:53;;;;;;;26.97;16.60;;;6.90;99.90;;;;;;5072990;28;20270;-64
2022/02/16 01:08:20;;;;;;;28.00;16.60;;;6.80;99.90;;;;;;5081385;28;20283;-63
2022/02/16 01:10:47;;;;;;;27.60;16.73;;;6.80;99.90;;;;;;5081072;28;20280;-63
2022/02/16 01:13:14;;;;;;;26.13;16.53;;;6.80;99.90;;;;;;5076333;28;21280;-65
2022/02/16 01:15:40;;;;;;;26.03;16.53;;;6.70;99.90;;;;;;5071831;28;20448;-63
2022/02/16 01:18:07;;;;;;;24.07;15.97;;;6.70;99.90;;;;;;5068755;28;20201;-63
2022/02/16 01:20:36;;;;;;;29.27;16.00;;;6.70;99.90;;;;;;5079177;28;20228;-64
2022/02/16 01:23:03;;;;;;;27.87;17.03;;;6.70;99.90;;;;;;5077167;28;20251;-63
2022/02/16 01:25:30;;;;;;;26.00;16.40;;;6.70;99.90;;;;;;5072309;28;20228;-63
2022/02/16 01:27:57;;;;;;;26.00;17.17;;;6.70;99.90;;;;;;5080932;28;20222;-63
2022/02/16 01:30:23;;;;;;;28.33;17.37;;;6.60;99.90;;;;;;5084942;28;20627;-63
2022/02/16 01:32:50;;;;;;;27.40;16.47;;;6.60;99.90;;;;;;5067776;28;20198;-63
2022/02/16 01:35:17;;;;;;;29.23;16.73;;;6.60;99.90;;;;;;5073331;28;21675;-64
2022/02/16 01:37:45;;;;;;;36.77;18.53;;;6.70;99.90;;;;;;5070509;28;20261;-64
2022/02/16 01:40:12;;;;;;;27.77;17.23;;;6.60;99.90;;;;;;5072461;28;20635;-63
2022/02/16 01:42:40;;;;;;;28.47;16.60;;;6.60;99.90;;;;;;5079402;28;20661;-64
2022/02/16 01:45:09;;;;;;;28.80;16.87;;;6.60;99.90;;;;;;5080505;28;20640;-62
2022/02/16 01:47:38;;;;;;;28.87;17.10;;;6.50;99.90;;;;;;5066910;28;20244;-63
2022/02/16 01:50:06;;;;;;;26.87;17.23;;;6.50;99.90;;;;;;5064722;28;20201;-65
2022/02/16 01:52:33;;;;;;;27.70;17.10;;;6.50;99.90;;;;;;5076789;28;20211;-64
2022/02/16 01:55:02;;;;;;;29.53;17.67;;;6.40;99.90;;;;;;5070611;28;20216;-63
2022/02/16 01:57:29;;;;;;;26.90;17.43;;;6.40;99.90;;;;;;5080359;28;20212;-64
2022/02/16 01:59:56;;;;;;;25.47;15.90;;;6.30;99.90;;;;;;5081247;28;20858;-63
2022/02/16 02:02:23;;;;;;;28.30;17.07;;;6.30;99.90;;;;;;5075312;28;20233;-65
2022/02/16 02:04:50;;;;;;;24.67;16.00;;;6.20;99.90;;;;;;5073765;28;20544;-64
2022/02/16 02:07:17;;;;;;;25.10;16.00;;;6.30;99.90;;;;;;5070773;28;20304;-64
2022/02/16 02:09:43;;;;;;;30.83;17.87;;;6.20;99.90;;;;;;5082606;28;20215;-64
2022/02/16 02:12:12;;;;;;;28.97;16.83;;;6.20;99.90;;;;;;5071839;28;20205;-63
2022/02/16 02:14:39;;;;;;;30.10;17.93;;;6.20;99.90;;;;;;5076789;28;20209;-64
2022/02/16 02:17:06;;;;;;;28.07;17.67;;;6.20;99.90;;;;;;5071264;28;20201;-64
2022/02/16 02:19:33;;;;;;;25.50;16.63;;;6.10;99.90;;;;;;5063428;28;20712;-63
2022/02/16 02:22:01;;;;;;;29.07;17.40;;;6.00;99.90;;;;;;5072068;28;22005;-64
2022/02/16 02:24:28;;;;;;;28.67;17.17;;;6.00;99.90;;;;;;5068705;28;20264;-65
2022/02/16 02:26:55;;;;;;;30.03;18.23;;;6.00;99.90;;;;;;5071941;28;20571;-65
2022/02/16 02:29:22;;;;;;;27.47;17.83;;;6.00;99.90;;;;;;5073904;28;20297;-64
2022/02/16 02:31:49;;;;;;;27.67;16.87;;;5.90;99.90;;;;;;5074541;28;20286;-64
2022/02/16 02:34:16;;;;;;;31.43;19.87;;;5.90;99.90;;;;;;5077512;28;20212;-64
2022/02/16 02:36:43;;;;;;;28.80;17.60;;;5.90;99.90;;;;;;5076013;28;20274;-64
2022/02/16 02:39:12;;;;;;;30.80;18.13;;;5.90;99.90;;;;;;5076412;28;20316;-63
2022/02/16 02:41:38;;;;;;;29.13;16.97;;;5.80;99.90;;;;;;5076723;28;20261;-64
2022/02/16 02:44:06;;;;;;;26.80;18.30;;;5.70;99.90;;;;;;5073887;28;20208;-63
2022/02/16 02:46:33;;;;;;;30.70;19.67;;;5.70;99.90;;;;;;5075766;28;20259;-63
2022/02/16 02:48:59;;;;;;;29.30;18.83;;;5.60;99.90;;;;;;5075038;28;20213;-63
2022/02/16 02:51:26;;;;;;;30.87;19.23;;;5.60;99.90;;;;;;5075886;28;20292;-63
2022/02/16 02:53:53;;;;;;;32.97;20.23;;;5.60;99.90;;;;;;5078845;28;20236;-64
2022/02/16 02:56:21;;;;;;;34.03;19.90;;;5.50;99.90;;;;;;5065728;28;20210;-64
2022/02/16 02:58:48;;;;;;;31.70;19.43;;;5.50;99.90;;;;;;5075088;28;20733;-63
2022/02/16 03:01:15;;;;;;;34.70;20.07;;;5.50;99.90;;;;;;5069118;28;20698;-64
2022/02/16 03:03:42;;;;;;;32.47;19.97;;;5.40;99.90;;;;;;5071339;28;20324;-64
2022/02/16 03:06:09;;;;;;;35.40;19.77;;;5.40;99.90;;;;;;5074944;28;20233;-64
2022/02/16 03:08:36;;;;;;;37.17;22.20;;;5.30;99.90;;;;;;5075869;28;20577;-64
2022/02/16 03:11:03;;;;;;;36.93;21.20;;;5.30;99.90;;;;;;5075368;28;20571;-64
2022/02/16 03:13:32;;;;;;;36.37;21.70;;;5.30;99.90;;;;;;5063606;28;20654;-64
2022/02/16 03:15:59;;;;;;;32.27;19.53;;;5.20;99.90;;;;;;5072991;28;20220;-63
2022/02/16 03:18:26;;;;;;;36.87;20.63;;;5.20;99.90;;;;;;5073049;28;20205;-64
2022/02/16 03:20:53;;;;;;;33.87;21.33;;;5.20;99.90;;;;;;5075432;28;20251;-63
2022/02/16 03:23:20;;;;;;;32.77;20.53;;;5.20;99.90;;;;;;5075305;28;20303;-63
2022/02/16 03:25:47;;;;;;;36.67;21.30;;;5.20;99.90;;;;;;5074528;28;20605;-64
2022/02/16 03:28:14;;;;;;;40.03;20.87;;;5.20;99.90;;;;;;5088200;28;20568;-63
2022/02/16 03:30:42;;;;;;;38.23;21.70;;;5.20;99.90;;;;;;5074821;28;20225;-63
2022/02/16 03:33:09;;;;;;;39.50;21.33;;;5.10;99.90;;;;;;5075733;28;20235;-63
2022/02/16 03:35:36;;;;;;;31.67;21.43;;;5.10;99.90;;;;;;5079210;28;20304;-63
2022/02/16 03:38:04;;;;;;;39.77;22.80;;;5.10;99.90;;;;;;5075341;28;20399;-63
2022/02/16 03:40:31;;;;;;;33.63;21.03;;;5.10;99.90;;;;;;5071769;28;20318;-65
2022/02/16 03:42:58;;;;;;;37.97;22.50;;;5.00;99.90;;;;;;5066049;28;20304;-63
2022/02/16 03:45:25;;;;;;;38.40;22.20;;;5.00;99.90;;;;;;5074206;28;20634;-63
2022/02/16 03:47:53;;;;;;;40.37;23.03;;;5.00;99.90;;;;;;5075158;28;20205;-63
2022/02/16 03:50:22;;;;;;;41.23;22.97;;;4.90;99.90;;;;;;5075396;28;20595;-63
2022/02/16 03:52:50;;;;;;;36.87;22.13;;;4.90;99.90;;;;;;5074893;28;20209;-64
2022/02/16 03:55:16;;;;;;;40.20;22.93;;;4.90;99.90;;;;;;5071488;28;20213;-62
2022/02/16 03:57:43;;;;;;;36.77;22.73;;;4.90;99.90;;;;;;5074989;28;20288;-63
2022/02/16 04:00:12;;;;;;;34.97;22.00;;;4.90;99.90;;;;;;5074777;28;20659;-63
2022/02/16 04:02:38;;;;;;;37.67;22.73;;;4.90;99.90;;;;;;5074468;28;20606;-63
2022/02/16 04:05:08;;;;;;;36.63;23.03;;;4.90;99.90;;;;;;5073136;28;20247;-63
2022/02/16 04:07:35;;;;;;;39.13;23.07;;;4.80;99.90;;;;;;5073559;28;20201;-63
2022/02/16 04:10:02;;;;;;;40.27;21.70;;;4.80;99.90;;;;;;5073967;28;20240;-63
2022/02/16 04:12:29;;;;;;;36.07;21.93;;;4.80;99.90;;;;;;5073540;28;20208;-63
2022/02/16 04:14:55;;;;;;;37.47;23.47;;;4.80;99.90;;;;;;5073984;28;20658;-63
2022/02/16 04:17:22;;;;;;;37.63;23.13;;;4.90;99.90;;;;;;5072819;28;20299;-63
2022/02/16 04:19:49;;;;;;;36.73;21.87;;;4.80;99.90;;;;;;5070640;28;20237;-64
2022/02/16 04:22:18;;;;;;;34.77;21.60;;;4.90;99.90;;;;;;5073892;28;20594;-62
2022/02/16 04:24:45;;;;;;;39.50;22.00;;;4.90;99.90;;;;;;5073387;28;20689;-63
2022/02/16 04:27:12;;;;;;;40.27;22.70;;;4.80;99.90;;;;;;5073356;28;20204;-63
2022/02/16 04:29:39;;;;;;;35.07;21.50;;;4.80;99.90;;;;;;5081047;28;20220;-62
2022/02/16 04:32:06;;;;;;;38.87;22.17;;;4.80;99.90;;;;;;5071304;28;20224;-63
2022/02/16 04:34:33;;;;;;;37.93;22.53;;;4.80;99.90;;;;;;5073725;28;20212;-64
2022/02/16 04:37:00;;;;;;;31.37;21.67;;;4.70;99.90;;;;;;5073810;28;20246;-62
2022/02/16 04:39:29;;;;;;;39.03;22.50;;;4.70;99.90;;;;;;5073475;28;20240;-63
2022/02/16 04:41:56;;;;;;;36.83;23.17;;;4.70;99.90;;;;;;5073514;28;20599;-63
2022/02/16 04:44:23;;;;;;;40.60;23.67;;;4.70;99.90;;;;;;5073085;28;20254;-63
2022/02/16 04:46:49;;;;;;;34.80;21.63;;;4.60;99.90;;;;;;5068989;28;20288;-64
2022/02/16 04:49:16;;;;;;;36.97;21.17;;;4.60;99.90;;;;;;5073522;28;20201;-63
2022/02/16 04:51:43;;;;;;;35.27;20.73;;;4.60;99.90;;;;;;5073245;28;20269;-63
2022/02/16 04:54:10;;;;;;;34.77;21.33;;;4.60;99.90;;;;;;5072434;28;20312;-63
2022/02/16 04:56:38;;;;;;;35.63;23.23;;;4.60;99.90;;;;;;5073197;28;20296;-65
2022/02/16 04:59:05;;;;;;;34.50;20.40;;;4.60;99.90;;;;;;5067643;28;20676;-63
2022/02/16 05:01:32;;;;;;;36.10;22.37;;;4.50;99.90;;;;;;5073800;28;20221;-63
2022/02/16 05:03:59;;;;;;;38.53;22.00;;;4.50;99.90;;;;;;5072293;28;20209;-63
2022/02/16 05:06:26;;;;;;;35.17;21.03;;;4.50;99.90;;;;;;5072607;28;20213;-63
2022/02/16 05:08:53;;;;;;;36.17;21.83;;;4.50;99.90;;;;;;5072802;28;20295;-64
2022/02/16 05:11:19;;;;;;;36.30;20.67;;;4.50;99.90;;;;;;5072691;28;20726;-64
2022/02/16 05:13:48;;;;;;;34.53;20.93;;;4.50;99.90;;;;;;5072789;28;20727;-63
2022/02/16 05:16:15;;;;;;;35.03;22.07;;;4.50;99.90;;;;;;5070903;28;20292;-64
2022/02/16 05:18:42;;;;;;;37.83;20.83;;;4.50;99.90;;;;;;5059375;28;20294;-63
2022/02/16 05:21:08;;;;;;;31.87;20.60;;;4.50;99.90;;;;;;5067573;28;20229;-64
2022/02/16 05:23:35;;;;;;;35.60;21.30;;;4.50;99.90;;;;;;5072720;28;20269;-64
2022/02/16 05:26:02;;;;;;;38.97;22.47;;;4.60;99.90;;;;;;5072024;28;20212;-63
2022/02/16 05:28:29;;;;;;;30.93;19.90;;;4.60;99.90;;;;;;5074540;28;20678;-63
2022/02/16 05:30:57;;;;;;;35.47;20.27;;;4.60;99.90;;;;;;5082793;28;20235;-63
2022/02/16 05:33:24;;;;;;;37.73;20.83;;;4.60;99.90;;;;;;5072776;28;20213;-64
2022/02/16 05:35:51;;;;;;;35.13;21.77;;;4.60;99.90;;;;;;5071196;28;20209;-62
2022/02/16 05:38:17;;;;;;;33.93;22.73;;;4.60;99.90;;;;;;5072286;28;20244;-64
2022/02/16 05:40:44;;;;;;;33.80;20.07;;;4.60;99.90;;;;;;5072404;28;20320;-67
2022/02/16 05:43:13;;;;;;;33.50;20.13;;;4.60;99.90;;;;;;5072876;28;20316;-67
2022/02/16 05:45:40;;;;;;;35.23;21.77;;;4.60;99.90;;;;;;5072278;28;20572;-67
2022/02/16 05:48:08;;;;;;;35.80;22.03;;;4.60;99.90;;;;;;5057104;28;20205;-67
2022/02/16 05:50:36;;;;;;;38.10;22.93;;;4.60;99.90;;;;;;5072491;28;20207;-67
2022/02/16 05:53:03;;;;;;;36.53;21.53;;;4.60;99.90;;;;;;5072924;28;20208;-66
2022/02/16 05:55:30;;;;;;;38.43;22.53;;;4.60;99.90;;;;;;5071768;28;20296;-66
2022/02/16 05:57:57;;;;;;;38.40;22.40;;;4.60;99.90;;;;;;5075867;28;20212;-66
2022/02/16 06:00:24;;;;;;;36.93;22.17;;;4.50;99.90;;;;;;5073254;28;20272;-66
2022/02/16 06:02:51;;;;;;;37.57;22.37;;;4.60;99.90;;;;;;5072209;28;20225;-66
2022/02/16 06:05:19;;;;;;;36.90;22.47;;;4.60;99.90;;;;;;5072743;28;20650;-66
2022/02/16 06:07:46;;;;;;;38.20;22.37;;;4.60;99.90;;;;;;5073616;28;20211;-67
2022/02/16 06:10:13;;;;;;;39.47;22.53;;;4.60;99.90;;;;;;5077725;28;20755;-66
2022/02/16 06:12:40;;;;;;;36.00;22.37;;;4.60;99.90;;;;;;5076886;28;20320;-66
2022/02/16 06:15:08;;;;;;;41.40;23.87;;;4.60;99.90;;;;;;5075036;28;20615;-62
2022/02/16 06:17:35;;;;;;;35.47;22.43;;;4.60;99.90;;;;;;5074085;28;20302;-63
2022/02/16 06:20:02;;;;;;;40.53;23.60;;;4.60;99.90;;;;;;5076104;28;20197;-63
2022/02/16 06:22:30;;;;;;;40.67;23.07;;;4.60;99.90;;;;;;5070209;28;20227;-63
2022/02/16 06:24:58;;;;;;;39.53;22.27;;;4.60;99.90;;;;;;5077025;28;20241;-64
2022/02/16 06:27:25;;;;;;;36.80;22.53;;;4.70;99.90;;;;;;5075178;28;20276;-65
2022/02/16 06:29:52;;;;;;;37.33;23.60;;;4.70;99.90;;;;;;5063828;28;20242;-64
2022/02/16 06:32:18;;;;;;;40.23;23.70;;;4.70;99.90;;;;;;5075358;28;20284;-64
2022/02/16 06:34:45;;;;;;;40.50;22.40;;;4.80;99.90;;;;;;5069973;28;20568;-64
2022/02/16 06:37:12;;;;;;;40.40;22.93;;;4.80;99.90;;;;;;5069902;28;20221;-66
2022/02/16 06:39:40;;;;;;;39.13;22.60;;;4.80;99.90;;;;;;5072095;28;20247;-64
2022/02/16 06:42:07;;;;;;;35.80;22.33;;;4.90;99.90;;;;;;5080885;28;20221;-66
2022/02/16 06:44:34;;;;;;;38.77;22.63;;;4.90;99.90;;;;;;5076511;28;20733;-65
2022/02/16 06:47:01;;;;;;;36.27;22.83;;;5.00;99.90;;;;;;5077373;28;20299;-65
2022/02/16 06:49:28;;;;;;;41.27;23.83;;;5.10;99.90;;;;;;5083444;28;20748;-65
2022/02/16 06:51:55;;;;;;;36.60;22.63;;;5.10;99.90;;;;;;5086295;28;20283;-63
2022/02/16 06:54:22;;;;;;;38.90;23.80;;;5.20;99.90;;;;;;5074264;28;20210;-64
2022/02/16 06:56:50;;;;;;;39.13;23.37;;;5.30;99.90;;;;;;5075266;28;20690;-64
2022/02/16 06:59:17;;;;;;;42.30;24.17;;;5.40;99.90;;;;;;5086558;28;20215;-71
2022/02/16 07:01:44;;;;;;;41.33;23.97;;;5.40;99.90;;;;;;5081851;28;20252;-68
2022/02/16 07:04:11;;;;;;;36.83;24.07;;;5.60;99.90;;;;;;5080869;28;20209;-69
2022/02/16 07:06:38;;;;;;;42.07;23.90;;;5.60;99.90;;;;;;5082121;28;20300;-70
2022/02/16 07:09:04;;;;;;;43.60;24.17;;;5.70;99.90;;;;;;5077299;28;20271;-68
2022/02/16 07:11:31;;;;;;;38.30;23.57;;;5.80;99.90;;;;;;5076111;28;20288;-70
2022/02/16 07:14:00;;;;;;;40.17;23.20;;;5.90;99.90;;;;;;5076085;28;20215;-69
2022/02/16 07:16:27;;;;;;;40.03;23.67;;;6.00;99.90;;;;;;5074455;28;20232;-70
2022/02/16 07:18:54;;;;;;;38.33;24.03;;;6.10;99.90;;;;;;5079478;28;20205;-68
2022/02/16 07:21:23;;;;;;;42.90;25.00;;;6.20;99.90;;;;;;5081521;28;20749;-70
2022/02/16 07:23:50;;;;;;;38.33;23.67;;;6.20;99.90;;;;;;5079064;28;20263;-70
2022/02/16 07:26:17;;;;;;;39.33;22.77;;;6.20;99.90;;;;;;5083510;28;20205;-68
2022/02/16 07:28:44;;;;;;;40.73;24.87;;;6.30;99.90;;;;;;5076193;28;20209;-71
2022/02/16 07:31:13;;;;;;;41.83;24.70;;;6.40;99.90;;;;;;5074887;28;20236;-70
2022/02/16 07:33:39;;;;;;;41.93;24.97;;;6.30;99.90;;;;;;5070566;28;20259;-68
2022/02/16 07:36:06;;;;;;;42.17;24.87;;;6.40;99.90;;;;;;5061664;28;20826;-72
2022/02/16 07:38:34;;;;;;;44.70;25.20;;;6.40;99.90;;;;;;5074339;28;20241;-68
2022/02/16 07:41:01;;;;;;;39.67;25.03;;;6.50;99.90;;;;;;5070479;28;20726;-69
2022/02/16 07:43:28;;;;;;;42.53;25.50;;;6.70;99.90;;;;;;5074123;28;20221;-68
2022/02/16 07:45:55;;;;;;;39.70;24.33;;;6.80;99.90;;;;;;5069281;28;20205;-70
2022/02/16 07:48:24;;;;;;;42.57;25.20;;;6.90;99.90;;;;;;5073541;28;20224;-73
2022/02/16 07:50:51;;;;;;;41.93;26.13;;;7.10;99.90;;;;;;5073819;28;20208;-72
2022/02/16 07:53:18;;;;;;;41.50;24.50;;;7.30;99.90;;;;;;5065083;28;20238;-70
2022/02/16 07:55:45;;;;;;;44.13;24.67;;;7.60;99.90;;;;;;5071657;28;20223;-71
2022/02/16 07:58:12;;;;;;;41.00;25.20;;;7.90;99.90;;;;;;5074125;28;20719;-73
2022/02/16 08:00:39;;;;;;;40.73;24.47;;;8.00;99.90;;;;;;5070960;28;20201;-68
2022/02/16 08:03:07;;;;;;;38.83;24.57;;;8.20;99.90;;;;;;5074570;28;20268;-68
2022/02/16 08:05:36;;;;;;;36.07;23.60;;;8.30;99.90;;;;;;5066887;28;20202;-72
2022/02/16 08:08:03;;;;;;;36.23;22.63;;;8.30;99.90;;;;;;5073663;28;20620;-75
2022/02/16 08:10:30;;;;;;;42.17;25.00;;;8.30;99.90;;;;;;5073566;28;20254;-72
2022/02/16 08:12:58;;;;;;;41.13;24.07;;;8.50;99.90;;;;;;5068411;28;20214;-71
2022/02/16 08:15:27;;;;;;;38.70;24.33;;;8.60;99.90;;;;;;5069760;28;20206;-73
2022/02/16 08:17:54;;;;;;;43.03;24.50;;;8.80;99.90;;;;;;5073633;28;20205;-72
2022/02/16 08:20:21;;;;;;;39.17;23.77;;;9.00;99.90;;;;;;5070795;28;20232;-73
2022/02/16 08:22:49;;;;;;;36.40;23.27;;;9.20;99.90;;;;;;5078838;28;20225;-74
2022/02/16 08:25:18;;;;;;;41.23;25.00;;;9.20;99.90;;;;;;5075080;28;20866;-71
2022/02/16 08:27:46;;;;;;;41.37;25.03;;;9.40;99.90;;;;;;5083587;28;20209;-71
2022/02/16 08:30:14;;;;;;;37.53;23.37;;;9.50;99.90;;;;;;5082036;28;20205;-72
2022/02/16 08:32:42;;;;;;;38.23;23.33;;;9.60;99.90;;;;;;5068637;28;20284;-71
2022/02/16 08:35:11;;;;;;;36.20;21.83;;;9.80;99.90;;;;;;5068049;28;20237;-70
2022/02/16 08:37:38;;;;;;;31.37;20.80;;;10.00;99.90;;;;;;5074606;28;20549;-70
2022/02/16 08:40:07;;;;;;;28.27;18.53;;;10.10;99.90;;;;;;5064649;28;20198;-72
2022/02/16 08:42:35;;;;;;;31.37;18.20;;;10.20;99.90;;;;;;5077873;28;20332;-73
2022/02/16 08:45:02;;;;;;;30.40;17.03;;;10.30;99.90;;;;;;5073753;28;20229;-72
2022/02/16 08:47:28;;;;;;;26.33;15.53;;;10.50;99.90;;;;;;5071244;28;20208;-72
2022/02/16 08:49:55;;;;;;;28.67;15.87;;;10.60;99.90;;;;;;5067564;28;20308;-71
2022/02/16 08:52:22;;;;;;;22.03;14.93;;;10.80;99.90;;;;;;5068163;28;20205;-72
2022/02/16 08:54:49;;;;;;;24.73;13.93;;;11.00;99.90;;;;;;5068452;28;20577;-71
2022/02/16 08:57:19;;;;;;;23.50;12.77;;;11.30;98.90;;;;;;5067499;28;20229;-72
2022/02/16 08:59:46;;;;;;;18.70;11.67;;;11.50;96.50;;;;;;5063664;28;20283;-72
2022/02/16 09:02:13;;;;;;;17.40;10.87;;;11.70;94.20;;;;;;5065040;28;20303;-71
2022/02/16 09:04:40;;;;;;;22.83;11.73;;;11.80;92.80;;;;;;5072534;28;20232;-73
2022/02/16 09:09:51;;;;;;;21.17;13.27;;;12.10;91.50;;;;;;5081371;28;20260;-71
2022/02/16 09:12:20;;;;;;;23.40;13.70;;;12.40;91.00;;;;;;5066876;28;20300;-74
2022/02/16 09:14:46;;;;;;;23.00;13.77;;;13.00;92.30;;;;;;5071062;28;20209;-72
2022/02/16 09:17:13;;;;;;;23.77;13.13;;;14.70;91.80;;;;;;5068312;28;20236;-72
2022/02/16 09:19:40;;;;;;;19.13;12.27;;;17.30;78.70;;;;;;5068158;28;20205;-72
2022/02/16 09:22:08;;;;;;;20.03;12.60;;;19.80;62.70;;;;;;5073959;28;20670;-72
2022/02/16 09:24:36;;;;;;;19.10;12.43;;;21.60;54.10;;;;;;5077489;28;20216;-73
2022/02/16 09:27:03;;;;;;;16.25;12.85;;;23.10;49.50;;;;;;5079583;28;20214;-73
2022/02/16 09:29:31;;;;;;;15.90;12.88;;;24.60;46.10;;;;;;5072460;28;20273;-74
2022/02/16 09:31:59;;;;;;;17.52;12.85;;;25.80;41.90;;;;;;5078157;28;20723;-73
2022/02/16 09:34:26;;;;;;;18.33;12.48;;;25.80;39.60;;;;;;5068141;28;20201;-71
2022/02/16 09:36:53;;;;;;;17.13;12.18;;;25.60;39.90;;;;;;5071459;28;20296;-73
2022/02/16 09:39:20;;;;;;;18.35;13.02;;;25.80;39.10;;;;;;5074532;28;20302;-73
2022/02/16 09:41:47;;;;;;;18.52;11.98;;;25.50;38.10;;;;;;5067073;28;20513;-74
2022/02/16 09:44:16;;;;;;;16.65;12.15;;;25.40;38.40;;;;;;5074515;28;20304;-70
2022/02/16 09:46:44;;;;;;;17.20;11.35;;;26.00;37.50;;;;;;5082027;28;20303;-73
2022/02/16 09:49:13;;;;;;;17.00;11.98;;;26.30;36.40;;;;;;5070646;28;20201;-72
2022/02/16 09:51:40;;;;;;;16.77;13.00;;;26.80;36.10;;;;;;5064912;28;20280;-72
2022/02/16 09:54:08;;;;;;;17.10;12.60;;;27.80;35.90;;;;;;5064277;28;20304;-72
2022/02/16 09:56:36;;;;;;;16.42;12.90;;;28.90;34.20;;;;;;5066134;28;20202;-72
2022/02/16 09:59:03;;;;;;;20.20;12.48;;;30.00;33.20;;;;;;5068972;28;20211;-72
2022/02/16 10:01:30;;;;;;;15.68;11.85;;;31.30;31.70;;;;;;5075556;28;20200;-72
2022/02/16 10:04:04;;;;;;;17.83;12.88;;;32.40;30.30;;;;;;5074681;28;20259;-73
2022/02/16 10:06:39;;;;;;;18.25;13.20;;;33.50;29.60;;;;;;5071443;28;20213;-69
2022/02/16 10:09:07;;;;;;;14.50;11.35;;;34.60;28.40;;;;;;5067799;28;20205;-72
2022/02/16 10:11:35;;;;;;;15.73;11.25;;;35.00;27.60;;;;;;5067956;28;20258;-73
2022/02/16 10:14:19;;;;;;;17.70;11.43;;;34.80;27.00;;;;;;5069143;28;20298;-71
2022/02/16 10:16:47;;;;;;;13.20;10.07;;;35.30;27.00;;;;;;5069315;28;20597;-71
2022/02/16 10:19:15;;;;;;;12.75;10.38;;;35.50;26.40;;;;;;5059888;28;20643;-72
2022/02/16 10:22:01;;;;;;;12.70;10.20;;;36.20;26.10;;;;;;5063398;28;20257;-71
2022/02/16 10:24:28;;;;;;;14.45;11.00;;;36.50;25.10;;;;;;5068277;28;20730;-71
2022/02/16 10:26:57;;;;;;;13.45;10.27;;;36.90;25.10;;;;;;5074395;28;20248;-70
2022/02/16 10:29:26;;;;;;;12.23;9.65;;;37.20;24.90;;;;;;5083014;28;20240;-70
2022/02/16 10:31:53;;;;;;;9.93;8.50;;;37.60;24.70;;;;;;5076981;28;20243;-71
2022/02/16 10:34:21;;;;;;;11.00;8.80;;;37.40;23.60;;;;;;5082207;28;20222;-72
2022/02/16 10:36:49;;;;;;;12.23;8.63;;;37.20;23.80;;;;;;5076037;28;20301;-71
2022/02/16 10:39:18;;;;;;;12.27;8.18;;;37.60;24.10;;;;;;5070436;28;20284;-72
2022/02/16 10:41:47;;;;;;;11.93;8.18;;;38.10;23.50;;;;;;5069165;28;20217;-71
2022/02/16 10:44:19;;;;;;;14.68;7.93;;;37.80;23.00;;;;;;5067223;28;20232;-71
2022/02/16 10:46:57;;;;;;;10.38;7.75;;;37.50;23.00;;;;;;5081803;28;20208;-71
2022/02/16 10:49:26;;;;;;;9.98;7.88;;;36.80;22.90;;;;;;5074299;28;20693;-72
2022/02/16 10:52:06;;;;;;;13.40;8.15;;;36.40;23.90;;;;;;5080549;28;20580;-72
2022/02/16 10:54:34;;;;;;;10.45;7.57;;;36.30;23.60;;;;;;5084369;28;20279;-70
2022/02/16 10:57:01;;;;;;;10.45;8.13;;;36.00;23.50;;;;;;5078708;28;20237;-72
2022/02/16 10:59:28;;;;;;;11.35;7.55;;;34.90;23.40;;;;;;5074627;28;20209;-71
2022/02/16 11:01:55;;;;;;;10.02;7.68;;;33.60;24.60;;;;;;5074311;28;20269;-73
2022/02/16 11:04:26;;;;;;;8.75;7.20;;;33.10;25.00;;;;;;5077243;28;20316;-72
2022/02/16 11:06:56;;;;;;;9.30;7.15;;;33.90;24.80;;;;;;5074468;28;20292;-72
2022/02/16 11:09:25;;;;;;;12.02;7.53;;;34.50;24.30;;;;;;5077227;28;20283;-71
2022/02/16 11:11:54;;;;;;;8.70;7.15;;;34.40;24.00;;;;;;5079245;28;20217;-73
2022/02/16 11:14:28;;;;;;;12.88;7.35;;;33.50;24.00;;;;;;5080914;28;20202;-71
2022/02/16 11:16:56;;;;;;;8.18;6.53;;;32.50;25.30;;;;;;5076459;28;20713;-73
2022/02/16 11:19:25;;;;;;;12.77;7.55;;;32.60;25.20;;;;;;5091180;28;20212;-72
2022/02/16 11:22:06;;;;;;;10.43;7.03;;;32.70;25.00;;;;;;5075358;28;20247;-74
2022/02/16 11:24:36;;;;;;;10.10;6.93;;;32.90;25.00;;;;;;5080392;28;20244;-73
2022/02/16 11:27:27;;;;;;;8.38;6.30;;;33.20;25.10;;;;;;5077794;28;20205;-73
2022/02/16 11:29:55;;;;;;;8.60;6.68;;;33.00;24.70;;;;;;5087179;28;20266;-76
2022/02/16 11:32:27;;;;;;;7.43;5.78;;;33.40;25.30;;;;;;5074845;28;20318;-72
2022/02/16 11:35:15;;;;;;;7.78;5.30;;;33.60;24.50;;;;;;5074178;28;20217;-72
2022/02/16 11:37:45;;;;;;;8.60;5.60;;;33.30;23.90;;;;;;5070105;28;20207;-73
2022/02/16 11:40:13;;;;;;;7.13;5.30;;;33.00;23.80;;;;;;5075423;28;20300;-74
2022/02/16 11:42:55;;;;;;;7.45;5.50;;;32.50;24.70;;;;;;5086670;28;20205;-73
2022/02/16 11:45:38;;;;;;;7.53;5.22;;;31.90;25.20;;;;;;5070381;28;20205;-72
2022/02/16 11:48:06;;;;;;;7.35;5.45;;;31.50;24.90;;;;;;5070034;28;20204;-73
2022/02/16 11:50:42;;;;;;;7.47;4.68;;;30.90;25.70;;;;;;5072970;28;20576;-73
2022/02/16 11:53:13;;;;;;;8.60;5.32;;;29.60;25.50;;;;;;5074812;28;20201;-71
2022/02/16 11:55:42;;;;;;;7.90;5.88;;;29.60;26.10;;;;;;5074535;28;20205;-69
2022/02/16 11:58:18;;;;;;;9.05;6.38;;;29.10;27.00;;;;;;5077771;28;20202;-69
2022/02/16 12:00:57;;;;;;;9.18;6.38;;;28.70;27.20;;;;;;5073713;28;20221;-69
2022/02/16 12:03:26;;;;;;;7.18;6.30;;;28.00;27.40;;;;;;5073963;28;20209;-71
2022/02/16 12:06:07;;;;;;;7.85;6.00;;;27.40;27.70;;;;;;5065301;28;20206;-69
2022/02/16 12:08:42;;;;;;;8.68;5.93;;;26.60;28.70;;;;;;5063696;28;20272;-70
2022/02/16 12:11:19;;;;;;;10.57;6.22;;;27.40;29.60;;;;;;5074673;28;20208;-72
2022/02/16 12:13:48;;;;;;;10.85;6.55;;;28.30;28.10;;;;;;5067252;28;20204;-69
2022/02/16 12:16:18;;;;;;;10.63;6.63;;;28.70;27.50;;;;;;5077492;28;20213;-71
2022/02/16 12:18:47;;;;;;;9.48;6.65;;;28.00;27.60;;;;;;5071005;28;20214;-70
2022/02/16 12:21:21;;;;;;;10.70;6.80;;;26.70;27.80;;;;;;5076296;28;20232;-70
2022/02/16 12:23:49;;;;;;;9.85;6.93;;;25.30;29.40;;;;;;5073414;28;20248;-71
2022/02/16 12:26:17;;;;;;;9.27;6.70;;;23.90;30.60;;;;;;5078755;28;20650;-69
2022/02/16 12:28:56;;;;;;;10.35;7.28;;;23.60;32.30;;;;;;5085566;28;20239;-70
2022/02/16 12:31:25;;;;;;;9.43;6.88;;;23.90;32.40;;;;;;5079672;28;20232;-72
2022/02/16 12:33:57;;;;;;;8.55;6.45;;;24.30;31.30;;;;;;5074029;28;20203;-69
2022/02/16 12:36:25;;;;;;;9.25;7.00;;;23.80;31.20;;;;;;5071178;28;20296;-71
2022/02/16 12:38:56;;;;;;;11.38;7.53;;;22.60;32.20;;;;;;5069239;28;20233;-70
2022/02/16 12:41:23;;;;;;;10.55;7.03;;;21.30;33.70;;;;;;5076398;28;20197;-71
2022/02/16 12:43:57;;;;;;;8.88;6.60;;;20.10;35.40;;;;;;5079102;28;20597;-71